sensor_id;sensor_type;location;lat;lon;timestamp;temperature;humidity
3954;DHT22;1991;48.682;9.030;2023-02-23T00:00:27;9.60;99.90
3954;DHT22;1991;48.682;9.030;2023-02-23T00:02:57;9.60;99.90
3954;DHT22;1991;48.682;9.030;2023-02-23T00:05:28;9.60;99.90
3954;DHT22;1991;48.682;9.030;2023-02-23T00:07:54;9.60;99.90
3954;DHT22;1991;48.682;9.030;2023-02-23T00:10:21;9.50;99.90
3954;DHT22;1991;48.682;9.030;2023-02-23T00:12:51;9.50;99.90
3954;DHT22;1991;48.682;9.030;2023-02-23T00:15:16;9.50;99.90
3954;DHT22;1991;48.682;9.030;2023-02-23T00:17:42;9.50;99.90
3954;DHT22;1991;48.682;9.030;2023-02-23T00:20:10;9.40;99.90
3954;DHT22;1991;48.682;9.030;2023-02-23T00:22:39;9.40;99.90
3954;DHT22;1991;48.682;9.030;2023-02-23T00:25:07;9.40;99.90
3954;DHT22;1991;48.682;9.030;2023-02-23T00:27:35;9.40;99.90
3954;DHT22;1991;48.682;9.030;2023-02-23T00:30:01;9.50;99.90
3954;DHT22;1991;48.682;9.030;2023-02-23T00:32:27;9.50;99.90
3954;DHT22;1991;48.682;9.030;2023-02-23T00:34:53;9.50;99.90
3954;DHT22;1991;48.682;9.030;2023-02-23T00:37:18;9.50;99.90
3954;DHT22;1991;48.682;9.030;2023-02-23T00:39:46;9.50;99.90
3954;DHT22;1991;48.682;9.030;2023-02-23T00:42:11;9.40;99.90
3954;DHT22;1991;48.682;9.030;2023-02-23T00:44:38;9.40;99.90
3954;DHT22;1991;48.682;9.030;2023-02-23T00:47:05;9.40;99.90
3954;DHT22;1991;48.682;9.030;2023-02-23T00:49:31;9.40;99.90
3954;DHT22;1991;48.682;9.030;2023-02-23T00:51:56;9.40;99.90
3954;DHT22;1991;48.682;9.030;2023-02-23T00:54:22;9.30;99.90
3954;DHT22;1991;48.682;9.030;2023-02-23T00:56:48;9.40;99.90
3954;DHT22;1991;48.682;9.030;2023-02-23T00:59:14;9.40;99.90
3954;DHT22;1991;48.682;9.030;2023-02-23T01:01:40;9.40;99.90
3954;DHT22;1991;48.682;9.030;2023-02-23T01:04:06;9.40;99.90
3954;DHT22;1991;48.682;9.030;2023-02-23T01:06:33;9.40;99.90
3954;DHT22;1991;48.682;9.030;2023-02-23T01:09:09;9.40;99.90
3954;DHT22;1991;48.682;9.030;2023-02-23T01:11:35;9.50;99.90
3954;DHT22;1991;48.682;9.030;2023-02-23T01:14:01;9.50;99.90
3954;DHT22;1991;48.682;9.030;2023-02-23T01:16:29;9.50;99.90
3954;DHT22;1991;48.682;9.030;2023-02-23T01:18:57;9.50;99.90
3954;DHT22;1991;48.682;9.030;2023-02-23T01:21:29;9.50;99.90
3954;DHT22;1991;48.682;9.030;2023-02-23T01:23:56;9.50;99.90
3954;DHT22;1991;48.682;9.030;2023-02-23T01:26:25;9.50;99.90
3954;DHT22;1991;48.682;9.030;2023-02-23T01:29:03;9.50;99.90
3954;DHT22;1991;48.682;9.030;2023-02-23T01:31:29;9.50;99.90
3954;DHT22;1991;48.682;9.030;2023-02-23T01:34:00;9.40;99.90
3954;DHT22;1991;48.682;9.030;2023-02-23T01:36:27;9.40;99.90
3954;DHT22;1991;48.682;9.030;2023-02-23T01:38:53;9.40;99.90
3954;DHT22;1991;48.682;9.030;2023-02-23T01:41:24;9.40;99.90
3954;DHT22;1991;48.682;9.030;2023-02-23T01:46:24;9.40;99.90
3954;DHT22;1991;48.682;9.030;2023-02-23T01:48:51;9.40;99.90
3954;DHT22;1991;48.682;9.030;2023-02-23T01:51:22;9.40;99.90
3954;DHT22;1991;48.682;9.030;2023-02-23T01:54:13;9.40;99.90
3954;DHT22;1991;48.682;9.030;2023-02-23T01:56:43;9.40;99.90
3954;DHT22;1991;48.682;9.030;2023-02-23T01:59:11;9.30;99.90
3954;DHT22;1991;48.682;9.030;2023-02-23T02:01:41;9.30;99.90
3954;DHT22;1991;48.682;9.030;2023-02-23T02:04:08;9.30;99.90
3954;DHT22;1991;48.682;9.030;2023-02-23T02:06:37;9.30;99.90
3954;DHT22;1991;48.682;9.030;2023-02-23T02:09:10;9.20;99.90
3954;DHT22;1991;48.682;9.030;2023-02-23T02:11:41;9.20;99.90
3954;DHT22;1991;48.682;9.030;2023-02-23T02:31:18;9.20;99.90
3954;DHT22;1991;48.682;9.030;2023-02-23T02:42:38;9.20;99.90
3954;DHT22;1991;48.682;9.030;2023-02-23T02:45:17;9.20;99.90
3954;DHT22;1991;48.682;9.030;2023-02-23T02:50:40;9.20;99.90
3954;DHT22;1991;48.682;9.030;2023-02-23T02:53:09;9.20;99.90
3954;DHT22;1991;48.682;9.030;2023-02-23T02:55:38;9.10;99.90
3954;DHT22;1991;48.682;9.030;2023-02-23T02:58:08;9.10;99.90
3954;DHT22;1991;48.682;9.030;2023-02-23T03:00:40;9.10;99.90
3954;DHT22;1991;48.682;9.030;2023-02-23T03:03:40;9.10;99.90
3954;DHT22;1991;48.682;9.030;2023-02-23T03:06:29;9.10;99.90
3954;DHT22;1991;48.682;9.030;2023-02-23T03:09:24;9.10;99.90
3954;DHT22;1991;48.682;9.030;2023-02-23T03:15:53;9.10;99.90
3954;DHT22;1991;48.682;9.030;2023-02-23T03:24:42;9.10;99.90
3954;DHT22;1991;48.682;9.030;2023-02-23T03:30:35;9.00;99.90
3954;DHT22;1991;48.682;9.030;2023-02-23T03:33:37;9.00;99.90
3954;DHT22;1991;48.682;9.030;2023-02-23T03:36:27;9.00;99.90
3954;DHT22;1991;48.682;9.030;2023-02-23T03:40:03;8.90;99.90
3954;DHT22;1991;48.682;9.030;2023-02-23T03:42:32;9.00;99.90
3954;DHT22;1991;48.682;9.030;2023-02-23T03:45:20;9.00;99.90
3954;DHT22;1991;48.682;9.030;2023-02-23T03:48:09;9.00;99.90
3954;DHT22;1991;48.682;9.030;2023-02-23T03:50:57;9.00;99.90
3954;DHT22;1991;48.682;9.030;2023-02-23T03:54:02;9.00;99.90
3954;DHT22;1991;48.682;9.030;2023-02-23T03:56:49;9.00;99.90
3954;DHT22;1991;48.682;9.030;2023-02-23T03:59:39;8.90;99.90
3954;DHT22;1991;48.682;9.030;2023-02-23T04:02:25;8.90;99.90
3954;DHT22;1991;48.682;9.030;2023-02-23T04:05:15;8.90;99.90
3954;DHT22;1991;48.682;9.030;2023-02-23T04:08:02;8.90;99.90
3954;DHT22;1991;48.682;9.030;2023-02-23T04:11:00;8.90;99.90
3954;DHT22;1991;48.682;9.030;2023-02-23T04:13:48;8.90;99.90
3954;DHT22;1991;48.682;9.030;2023-02-23T04:16:17;8.90;99.90
3954;DHT22;1991;48.682;9.030;2023-02-23T04:18:42;8.90;99.90
3954;DHT22;1991;48.682;9.030;2023-02-23T04:21:08;8.90;99.90
3954;DHT22;1991;48.682;9.030;2023-02-23T04:23:35;8.90;99.90
3954;DHT22;1991;48.682;9.030;2023-02-23T04:26:02;8.90;99.90
3954;DHT22;1991;48.682;9.030;2023-02-23T04:28:29;8.80;99.90
3954;DHT22;1991;48.682;9.030;2023-02-23T04:30:54;8.80;99.90
3954;DHT22;1991;48.682;9.030;2023-02-23T04:33:20;8.80;99.90
3954;DHT22;1991;48.682;9.030;2023-02-23T04:35:46;8.80;99.90
3954;DHT22;1991;48.682;9.030;2023-02-23T04:38:12;8.80;99.90
3954;DHT22;1991;48.682;9.030;2023-02-23T04:40:37;8.80;99.90
3954;DHT22;1991;48.682;9.030;2023-02-23T04:43:03;8.80;99.90
3954;DHT22;1991;48.682;9.030;2023-02-23T04:45:29;8.80;99.90
3954;DHT22;1991;48.682;9.030;2023-02-23T04:47:54;8.80;99.90
3954;DHT22;1991;48.682;9.030;2023-02-23T04:50:20;8.70;99.90
3954;DHT22;1991;48.682;9.030;2023-02-23T04:52:46;8.70;99.90
3954;DHT22;1991;48.682;9.030;2023-02-23T04:55:17;8.70;99.90
3954;DHT22;1991;48.682;9.030;2023-02-23T04:57:42;8.70;99.90
3954;DHT22;1991;48.682;9.030;2023-02-23T05:00:09;8.70;99.90
3954;DHT22;1991;48.682;9.030;2023-02-23T05:02:35;8.70;99.90
3954;DHT22;1991;48.682;9.030;2023-02-23T05:05:00;8.70;99.90
3954;DHT22;1991;48.682;9.030;2023-02-23T05:07:26;8.60;99.90
3954;DHT22;1991;48.682;9.030;2023-02-23T05:09:51;8.60;99.90
3954;DHT22;1991;48.682;9.030;2023-02-23T05:12:18;8.60;99.90
3954;DHT22;1991;48.682;9.030;2023-02-23T05:14:44;8.60;99.90
3954;DHT22;1991;48.682;9.030;2023-02-23T05:17:10;8.60;99.90
3954;DHT22;1991;48.682;9.030;2023-02-23T05:19:36;8.60;99.90
3954;DHT22;1991;48.682;9.030;2023-02-23T05:22:02;8.60;99.90
3954;DHT22;1991;48.682;9.030;2023-02-23T05:24:27;8.70;99.90
3954;DHT22;1991;48.682;9.030;2023-02-23T05:26:53;8.70;99.90
3954;DHT22;1991;48.682;9.030;2023-02-23T05:29:19;8.70;99.90
3954;DHT22;1991;48.682;9.030;2023-02-23T05:31:44;8.70;99.90
3954;DHT22;1991;48.682;9.030;2023-02-23T05:34:11;8.70;99.90
3954;DHT22;1991;48.682;9.030;2023-02-23T05:36:36;8.70;99.90
3954;DHT22;1991;48.682;9.030;2023-02-23T05:39:03;8.70;99.90
3954;DHT22;1991;48.682;9.030;2023-02-23T05:41:28;8.70;99.90
3954;DHT22;1991;48.682;9.030;2023-02-23T05:43:54;8.70;99.90
3954;DHT22;1991;48.682;9.030;2023-02-23T05:46:23;8.70;99.90
3954;DHT22;1991;48.682;9.030;2023-02-23T05:48:56;8.70;99.90
3954;DHT22;1991;48.682;9.030;2023-02-23T05:51:23;8.70;99.90
3954;DHT22;1991;48.682;9.030;2023-02-23T05:53:49;8.60;99.90
3954;DHT22;1991;48.682;9.030;2023-02-23T05:56:16;8.60;99.90
3954;DHT22;1991;48.682;9.030;2023-02-23T05:58:50;8.60;99.90
3954;DHT22;1991;48.682;9.030;2023-02-23T06:01:16;8.60;99.90
3954;DHT22;1991;48.682;9.030;2023-02-23T06:03:42;8.60;99.90
3954;DHT22;1991;48.682;9.030;2023-02-23T06:06:08;8.60;99.90
3954;DHT22;1991;48.682;9.030;2023-02-23T06:08:33;8.60;99.90
3954;DHT22;1991;48.682;9.030;2023-02-23T06:10:59;8.60;99.90
3954;DHT22;1991;48.682;9.030;2023-02-23T06:13:25;8.60;99.90
3954;DHT22;1991;48.682;9.030;2023-02-23T06:15:51;8.60;99.90
3954;DHT22;1991;48.682;9.030;2023-02-23T06:18:16;8.60;99.90
3954;DHT22;1991;48.682;9.030;2023-02-23T06:20:42;8.60;99.90
3954;DHT22;1991;48.682;9.030;2023-02-23T06:23:08;8.60;99.90
3954;DHT22;1991;48.682;9.030;2023-02-23T06:25:33;8.60;99.90
3954;DHT22;1991;48.682;9.030;2023-02-23T06:27:59;8.50;99.90
3954;DHT22;1991;48.682;9.030;2023-02-23T06:30:25;8.60;99.90
3954;DHT22;1991;48.682;9.030;2023-02-23T06:32:50;8.50;99.90
3954;DHT22;1991;48.682;9.030;2023-02-23T06:35:16;8.50;99.90
3954;DHT22;1991;48.682;9.030;2023-02-23T06:37:41;8.50;99.90
3954;DHT22;1991;48.682;9.030;2023-02-23T06:40:08;8.40;99.90
3954;DHT22;1991;48.682;9.030;2023-02-23T06:42:34;8.40;99.90
3954;DHT22;1991;48.682;9.030;2023-02-23T06:45:00;8.40;99.90
3954;DHT22;1991;48.682;9.030;2023-02-23T06:47:26;8.50;99.90
3954;DHT22;1991;48.682;9.030;2023-02-23T06:49:52;8.40;99.90
3954;DHT22;1991;48.682;9.030;2023-02-23T06:52:17;8.50;99.90
3954;DHT22;1991;48.682;9.030;2023-02-23T06:54:43;8.50;99.90
3954;DHT22;1991;48.682;9.030;2023-02-23T06:57:09;8.50;99.90
3954;DHT22;1991;48.682;9.030;2023-02-23T06:59:35;8.50;99.90
3954;DHT22;1991;48.682;9.030;2023-02-23T07:02:01;8.40;99.90
3954;DHT22;1991;48.682;9.030;2023-02-23T07:04:29;8.50;99.90
3954;DHT22;1991;48.682;9.030;2023-02-23T07:06:54;8.50;99.90
3954;DHT22;1991;48.682;9.030;2023-02-23T07:09:20;8.40;99.90
3954;DHT22;1991;48.682;9.030;2023-02-23T07:11:45;8.40;99.90
3954;DHT22;1991;48.682;9.030;2023-02-23T07:14:11;8.50;99.90
3954;DHT22;1991;48.682;9.030;2023-02-23T07:16:37;8.60;99.90
3954;DHT22;1991;48.682;9.030;2023-02-23T07:19:04;8.70;99.90
3954;DHT22;1991;48.682;9.030;2023-02-23T07:21:31;8.70;99.90
3954;DHT22;1991;48.682;9.030;2023-02-23T07:23:57;8.90;99.90
3954;DHT22;1991;48.682;9.030;2023-02-23T07:26:23;8.90;99.90
3954;DHT22;1991;48.682;9.030;2023-02-23T07:28:49;9.00;99.90
3954;DHT22;1991;48.682;9.030;2023-02-23T07:31:15;9.10;99.90
3954;DHT22;1991;48.682;9.030;2023-02-23T07:33:41;9.20;99.90
3954;DHT22;1991;48.682;9.030;2023-02-23T07:36:06;9.30;99.90
3954;DHT22;1991;48.682;9.030;2023-02-23T07:38:32;9.30;99.90
3954;DHT22;1991;48.682;9.030;2023-02-23T07:40:58;9.40;99.90
3954;DHT22;1991;48.682;9.030;2023-02-23T07:43:23;9.50;99.90
3954;DHT22;1991;48.682;9.030;2023-02-23T07:45:49;9.70;99.90
3954;DHT22;1991;48.682;9.030;2023-02-23T07:48:16;9.80;99.90
3954;DHT22;1991;48.682;9.030;2023-02-23T07:50:42;9.90;99.90
3954;DHT22;1991;48.682;9.030;2023-02-23T07:53:08;10.00;99.90
3954;DHT22;1991;48.682;9.030;2023-02-23T07:55:33;10.20;99.90
3954;DHT22;1991;48.682;9.030;2023-02-23T07:57:59;10.30;99.90
3954;DHT22;1991;48.682;9.030;2023-02-23T08:00:25;10.50;99.90
3954;DHT22;1991;48.682;9.030;2023-02-23T08:02:51;10.60;99.90
3954;DHT22;1991;48.682;9.030;2023-02-23T08:05:18;10.70;99.90
3954;DHT22;1991;48.682;9.030;2023-02-23T08:07:44;10.80;99.90
3954;DHT22;1991;48.682;9.030;2023-02-23T08:10:10;10.80;99.90
3954;DHT22;1991;48.682;9.030;2023-02-23T08:12:36;10.80;99.90
3954;DHT22;1991;48.682;9.030;2023-02-23T08:15:03;10.80;99.90
3954;DHT22;1991;48.682;9.030;2023-02-23T08:17:35;10.90;99.90
3954;DHT22;1991;48.682;9.030;2023-02-23T08:20:01;10.90;99.90
3954;DHT22;1991;48.682;9.030;2023-02-23T08:22:27;11.00;99.90
3954;DHT22;1991;48.682;9.030;2023-02-23T08:24:53;11.10;99.90
3954;DHT22;1991;48.682;9.030;2023-02-23T08:27:18;11.10;99.90
3954;DHT22;1991;48.682;9.030;2023-02-23T08:29:44;11.10;99.90
3954;DHT22;1991;48.682;9.030;2023-02-23T08:32:10;11.10;99.90
3954;DHT22;1991;48.682;9.030;2023-02-23T08:34:39;11.20;99.90
3954;DHT22;1991;48.682;9.030;2023-02-23T08:37:06;11.30;99.90
3954;DHT22;1991;48.682;9.030;2023-02-23T08:39:32;11.30;99.90
3954;DHT22;1991;48.682;9.030;2023-02-23T08:41:57;11.50;99.90
3954;DHT22;1991;48.682;9.030;2023-02-23T08:44:23;11.60;99.90
3954;DHT22;1991;48.682;9.030;2023-02-23T08:46:48;11.80;99.90
3954;DHT22;1991;48.682;9.030;2023-02-23T08:49:14;11.90;99.90
3954;DHT22;1991;48.682;9.030;2023-02-23T08:51:40;12.00;99.90
3954;DHT22;1991;48.682;9.030;2023-02-23T08:54:06;12.00;99.90
3954;DHT22;1991;48.682;9.030;2023-02-23T08:56:37;12.10;99.90
3954;DHT22;1991;48.682;9.030;2023-02-23T08:59:03;12.10;99.90
3954;DHT22;1991;48.682;9.030;2023-02-23T09:01:28;12.10;99.90
3954;DHT22;1991;48.682;9.030;2023-02-23T09:03:54;12.10;99.90
3954;DHT22;1991;48.682;9.030;2023-02-23T09:06:21;12.00;99.90
3954;DHT22;1991;48.682;9.030;2023-02-23T09:08:47;12.10;99.90
3954;DHT22;1991;48.682;9.030;2023-02-23T09:11:13;12.20;99.90
3954;DHT22;1991;48.682;9.030;2023-02-23T09:13:38;12.20;99.90
3954;DHT22;1991;48.682;9.030;2023-02-23T09:16:05;12.30;99.90
3954;DHT22;1991;48.682;9.030;2023-02-23T09:18:32;12.40;99.90
3954;DHT22;1991;48.682;9.030;2023-02-23T09:20:58;12.40;99.90
3954;DHT22;1991;48.682;9.030;2023-02-23T09:23:27;12.70;99.90
3954;DHT22;1991;48.682;9.030;2023-02-23T09:25:53;12.90;99.90
3954;DHT22;1991;48.682;9.030;2023-02-23T09:28:20;13.00;99.90
3954;DHT22;1991;48.682;9.030;2023-02-23T09:30:46;12.90;99.90
3954;DHT22;1991;48.682;9.030;2023-02-23T09:33:13;13.00;99.90
3954;DHT22;1991;48.682;9.030;2023-02-23T09:35:39;13.30;99.90
3954;DHT22;1991;48.682;9.030;2023-02-23T09:38:06;13.60;99.90
3954;DHT22;1991;48.682;9.030;2023-02-23T09:40:52;14.00;99.90
3954;DHT22;1991;48.682;9.030;2023-02-23T09:43:19;14.70;99.90
3954;DHT22;1991;48.682;9.030;2023-02-23T09:45:51;15.60;97.90
3954;DHT22;1991;48.682;9.030;2023-02-23T09:48:25;16.60;94.80
3954;DHT22;1991;48.682;9.030;2023-02-23T09:50:54;18.40;88.80
3954;DHT22;1991;48.682;9.030;2023-02-23T09:53:30;19.10;78.90
3954;DHT22;1991;48.682;9.030;2023-02-23T09:55:58;21.30;71.10
3954;DHT22;1991;48.682;9.030;2023-02-23T09:58:29;23.40;61.00
3954;DHT22;1991;48.682;9.030;2023-02-23T10:06:45;20.10;58.90
3954;DHT22;1991;48.682;9.030;2023-02-23T10:12:44;17.70;67.20
3954;DHT22;1991;48.682;9.030;2023-02-23T10:23:55;16.70;70.20
3954;DHT22;1991;48.682;9.030;2023-02-23T10:26:27;16.40;70.20
3954;DHT22;1991;48.682;9.030;2023-02-23T10:28:57;16.20;72.30
3954;DHT22;1991;48.682;9.030;2023-02-23T10:31:39;16.50;73.00
3954;DHT22;1991;48.682;9.030;2023-02-23T10:34:16;16.60;71.20
3954;DHT22;1991;48.682;9.030;2023-02-23T10:39:15;17.50;68.60
3954;DHT22;1991;48.682;9.030;2023-02-23T10:41:41;17.70;63.70
3954;DHT22;1991;48.682;9.030;2023-02-23T10:44:14;17.70;64.70
3954;DHT22;1991;48.682;9.030;2023-02-23T10:46:42;17.50;63.20
3954;DHT22;1991;48.682;9.030;2023-02-23T10:49:18;17.40;64.00
3954;DHT22;1991;48.682;9.030;2023-02-23T10:51:47;17.50;65.20
3954;DHT22;1991;48.682;9.030;2023-02-23T10:54:39;17.80;64.30
3954;DHT22;1991;48.682;9.030;2023-02-23T10:57:10;18.00;63.60
3954;DHT22;1991;48.682;9.030;2023-02-23T10:59:41;18.10;63.90
3954;DHT22;1991;48.682;9.030;2023-02-23T11:02:24;18.00;63.30
3954;DHT22;1991;48.682;9.030;2023-02-23T11:04:56;18.00;64.00
3954;DHT22;1991;48.682;9.030;2023-02-23T11:07:27;17.80;65.30
3954;DHT22;1991;48.682;9.030;2023-02-23T11:10:23;18.10;65.50
3954;DHT22;1991;48.682;9.030;2023-02-23T11:12:50;18.20;64.70
3954;DHT22;1991;48.682;9.030;2023-02-23T11:15:31;18.00;63.40
3954;DHT22;1991;48.682;9.030;2023-02-23T11:18:00;18.20;65.00
3954;DHT22;1991;48.682;9.030;2023-02-23T11:20:32;18.90;62.50
3954;DHT22;1991;48.682;9.030;2023-02-23T11:25:51;19.40;61.60
3954;DHT22;1991;48.682;9.030;2023-02-23T11:28:46;18.90;62.50
3954;DHT22;1991;48.682;9.030;2023-02-23T11:31:17;19.30;64.70
3954;DHT22;1991;48.682;9.030;2023-02-23T11:33:44;20.90;59.90
3954;DHT22;1991;48.682;9.030;2023-02-23T11:36:40;21.40;58.30
3954;DHT22;1991;48.682;9.030;2023-02-23T11:39:20;21.30;56.40
3954;DHT22;1991;48.682;9.030;2023-02-23T11:42:19;21.10;56.40
3954;DHT22;1991;48.682;9.030;2023-02-23T11:47:31;20.40;57.30
3954;DHT22;1991;48.682;9.030;2023-02-23T11:49:57;20.20;59.00
3954;DHT22;1991;48.682;9.030;2023-02-23T11:52:24;19.90;59.20
3954;DHT22;1991;48.682;9.030;2023-02-23T11:54:55;19.50;58.80
3954;DHT22;1991;48.682;9.030;2023-02-23T11:57:34;19.00;59.60
3954;DHT22;1991;48.682;9.030;2023-02-23T12:00:11;18.80;61.50
3954;DHT22;1991;48.682;9.030;2023-02-23T12:03:15;18.70;62.00
3954;DHT22;1991;48.682;9.030;2023-02-23T12:05:49;19.40;60.00
3954;DHT22;1991;48.682;9.030;2023-02-23T12:08:38;22.40;54.80
3954;DHT22;1991;48.682;9.030;2023-02-23T12:11:12;23.80;50.70
3954;DHT22;1991;48.682;9.030;2023-02-23T12:13:43;23.10;49.40
3954;DHT22;1991;48.682;9.030;2023-02-23T12:18:51;21.30;51.30
3954;DHT22;1991;48.682;9.030;2023-02-23T12:21:34;20.20;55.00
3954;DHT22;1991;48.682;9.030;2023-02-23T12:26:39;18.70;56.90
3954;DHT22;1991;48.682;9.030;2023-02-23T12:29:18;18.10;58.80
3954;DHT22;1991;48.682;9.030;2023-02-23T12:31:54;17.60;60.20
3954;DHT22;1991;48.682;9.030;2023-02-23T12:34:29;17.20;62.00
3954;DHT22;1991;48.682;9.030;2023-02-23T12:37:02;16.90;64.10
3954;DHT22;1991;48.682;9.030;2023-02-23T12:39:40;16.50;64.50
3954;DHT22;1991;48.682;9.030;2023-02-23T12:42:25;16.20;66.80
3954;DHT22;1991;48.682;9.030;2023-02-23T12:45:00;15.90;66.90
3954;DHT22;1991;48.682;9.030;2023-02-23T12:47:38;15.70;68.50
3954;DHT22;1991;48.682;9.030;2023-02-23T12:58:26;15.20;70.60
3954;DHT22;1991;48.682;9.030;2023-02-23T13:01:03;15.30;70.80
3954;DHT22;1991;48.682;9.030;2023-02-23T13:15:01;15.40;73.50
3954;DHT22;1991;48.682;9.030;2023-02-23T13:20:34;15.20;73.70
3954;DHT22;1991;48.682;9.030;2023-02-23T13:25:50;15.00;75.20
3954;DHT22;1991;48.682;9.030;2023-02-23T13:31:26;14.80;75.70
3954;DHT22;1991;48.682;9.030;2023-02-23T13:33:55;14.80;76.50
3954;DHT22;1991;48.682;9.030;2023-02-23T13:36:22;14.70;77.00
3954;DHT22;1991;48.682;9.030;2023-02-23T13:53:00;13.90;87.40
3954;DHT22;1991;48.682;9.030;2023-02-23T13:58:23;13.70;90.90
3954;DHT22;1991;48.682;9.030;2023-02-23T14:00:53;13.50;91.70
3954;DHT22;1991;48.682;9.030;2023-02-23T14:03:29;13.40;93.30
3954;DHT22;1991;48.682;9.030;2023-02-23T14:05:58;13.50;93.70
3954;DHT22;1991;48.682;9.030;2023-02-23T14:08:34;13.40;94.10
3954;DHT22;1991;48.682;9.030;2023-02-23T14:11:02;13.30;94.20
3954;DHT22;1991;48.682;9.030;2023-02-23T14:13:33;13.20;95.30
3954;DHT22;1991;48.682;9.030;2023-02-23T14:16:18;13.20;96.40
3954;DHT22;1991;48.682;9.030;2023-02-23T14:19:13;13.30;96.30
3954;DHT22;1991;48.682;9.030;2023-02-23T14:21:50;13.50;97.30
3954;DHT22;1991;48.682;9.030;2023-02-23T14:24:23;13.70;97.40
3954;DHT22;1991;48.682;9.030;2023-02-23T14:27:16;14.00;96.80
3954;DHT22;1991;48.682;9.030;2023-02-23T14:30:10;15.90;94.30
3954;DHT22;1991;48.682;9.030;2023-02-23T14:32:30;16.50;91.00
3954;DHT22;1991;48.682;9.030;2023-02-23T14:35:00;16.90;88.60
3954;DHT22;1991;48.682;9.030;2023-02-23T14:37:57;17.40;87.70
3954;DHT22;1991;48.682;9.030;2023-02-23T14:40:30;17.40;86.40
3954;DHT22;1991;48.682;9.030;2023-02-23T14:42:57;17.30;84.80
3954;DHT22;1991;48.682;9.030;2023-02-23T14:45:26;17.00;87.30
3954;DHT22;1991;48.682;9.030;2023-02-23T14:47:56;16.80;87.90
3954;DHT22;1991;48.682;9.030;2023-02-23T14:50:34;16.60;89.70
3954;DHT22;1991;48.682;9.030;2023-02-23T14:53:02;16.50;90.30
3954;DHT22;1991;48.682;9.030;2023-02-23T14:55:33;16.30;90.40
3954;DHT22;1991;48.682;9.030;2023-02-23T14:58:02;16.10;90.90
3954;DHT22;1991;48.682;9.030;2023-02-23T15:00:30;16.00;90.50
3954;DHT22;1991;48.682;9.030;2023-02-23T15:03:03;15.90;90.60
3954;DHT22;1991;48.682;9.030;2023-02-23T15:05:31;15.70;90.70
3954;DHT22;1991;48.682;9.030;2023-02-23T15:07:59;15.60;90.80
3954;DHT22;1991;48.682;9.030;2023-02-23T15:10:33;15.30;90.90
3954;DHT22;1991;48.682;9.030;2023-02-23T15:13:00;15.10;90.90
3954;DHT22;1991;48.682;9.030;2023-02-23T15:15:31;15.00;91.50
3954;DHT22;1991;48.682;9.030;2023-02-23T15:18:00;14.70;92.20
3954;DHT22;1991;48.682;9.030;2023-02-23T15:20:31;14.60;93.00
3954;DHT22;1991;48.682;9.030;2023-02-23T15:22:59;14.30;93.20
3954;DHT22;1991;48.682;9.030;2023-02-23T15:25:37;14.30;94.00
3954;DHT22;1991;48.682;9.030;2023-02-23T15:28:21;14.10;95.50
3954;DHT22;1991;48.682;9.030;2023-02-23T15:30:48;13.90;95.20
3954;DHT22;1991;48.682;9.030;2023-02-23T15:33:17;13.80;95.20
3954;DHT22;1991;48.682;9.030;2023-02-23T15:36:03;13.60;95.60
3954;DHT22;1991;48.682;9.030;2023-02-23T15:38:33;13.60;96.30
3954;DHT22;1991;48.682;9.030;2023-02-23T15:41:04;13.40;97.00
3954;DHT22;1991;48.682;9.030;2023-02-23T15:43:32;13.40;97.30
3954;DHT22;1991;48.682;9.030;2023-02-23T15:46:00;13.10;97.60
3954;DHT22;1991;48.682;9.030;2023-02-23T15:48:39;13.00;99.40
3954;DHT22;1991;48.682;9.030;2023-02-23T15:51:05;12.90;99.90
3954;DHT22;1991;48.682;9.030;2023-02-23T15:53:37;12.80;99.90
3954;DHT22;1991;48.682;9.030;2023-02-23T15:56:21;12.70;99.90
3954;DHT22;1991;48.682;9.030;2023-02-23T15:58:51;12.70;99.90
3954;DHT22;1991;48.682;9.030;2023-02-23T16:01:22;12.70;99.90
3954;DHT22;1991;48.682;9.030;2023-02-23T16:04:11;12.60;99.90
3954;DHT22;1991;48.682;9.030;2023-02-23T16:06:54;12.50;99.90
3954;DHT22;1991;48.682;9.030;2023-02-23T16:11:59;12.30;99.90
3954;DHT22;1991;48.682;9.030;2023-02-23T16:14:30;12.20;99.90
3954;DHT22;1991;48.682;9.030;2023-02-23T16:16:56;12.20;99.90
3954;DHT22;1991;48.682;9.030;2023-02-23T16:19:24;12.20;99.90
3954;DHT22;1991;48.682;9.030;2023-02-23T16:21:54;12.10;99.90
3954;DHT22;1991;48.682;9.030;2023-02-23T16:24:26;12.00;99.90
3954;DHT22;1991;48.682;9.030;2023-02-23T16:26:56;11.90;99.90
3954;DHT22;1991;48.682;9.030;2023-02-23T16:29:33;11.80;99.90
3954;DHT22;1991;48.682;9.030;2023-02-23T16:32:10;11.70;99.90
3954;DHT22;1991;48.682;9.030;2023-02-23T16:35:00;11.70;99.90
3954;DHT22;1991;48.682;9.030;2023-02-23T16:37:26;11.60;99.90
3954;DHT22;1991;48.682;9.030;2023-02-23T16:39:53;11.60;99.90
3954;DHT22;1991;48.682;9.030;2023-02-23T16:42:27;11.50;99.90
3954;DHT22;1991;48.682;9.030;2023-02-23T16:44:56;11.40;99.90
3954;DHT22;1991;48.682;9.030;2023-02-23T16:49:48;11.20;99.90
3954;DHT22;1991;48.682;9.030;2023-02-23T16:52:19;11.10;99.90
3954;DHT22;1991;48.682;9.030;2023-02-23T16:54:46;11.00;99.90
3954;DHT22;1991;48.682;9.030;2023-02-23T16:57:25;11.00;99.90
3954;DHT22;1991;48.682;9.030;2023-02-23T16:59:53;10.90;99.90
3954;DHT22;1991;48.682;9.030;2023-02-23T17:02:19;10.90;99.90
3954;DHT22;1991;48.682;9.030;2023-02-23T17:04:47;10.90;99.90
3954;DHT22;1991;48.682;9.030;2023-02-23T17:07:14;10.90;99.90
3954;DHT22;1991;48.682;9.030;2023-02-23T17:09:41;10.90;99.90
3954;DHT22;1991;48.682;9.030;2023-02-23T17:12:12;10.90;99.90
3954;DHT22;1991;48.682;9.030;2023-02-23T17:14:38;10.90;99.90
3954;DHT22;1991;48.682;9.030;2023-02-23T17:17:04;10.80;99.90
3954;DHT22;1991;48.682;9.030;2023-02-23T17:19:30;10.80;99.90
3954;DHT22;1991;48.682;9.030;2023-02-23T17:21:55;10.80;99.90
3954;DHT22;1991;48.682;9.030;2023-02-23T17:24:21;10.80;99.90
3954;DHT22;1991;48.682;9.030;2023-02-23T17:26:50;10.80;99.90
3954;DHT22;1991;48.682;9.030;2023-02-23T17:29:16;10.80;99.90
3954;DHT22;1991;48.682;9.030;2023-02-23T17:31:43;10.70;99.90
3954;DHT22;1991;48.682;9.030;2023-02-23T17:34:09;10.80;99.90
3954;DHT22;1991;48.682;9.030;2023-02-23T17:36:34;10.70;99.90
3954;DHT22;1991;48.682;9.030;2023-02-23T17:39:00;10.80;99.90
3954;DHT22;1991;48.682;9.030;2023-02-23T17:41:26;10.80;99.90
3954;DHT22;1991;48.682;9.030;2023-02-23T17:43:52;10.70;99.90
3954;DHT22;1991;48.682;9.030;2023-02-23T17:46:18;10.70;99.90
3954;DHT22;1991;48.682;9.030;2023-02-23T17:48:43;10.70;99.90
3954;DHT22;1991;48.682;9.030;2023-02-23T17:51:12;10.70;99.90
3954;DHT22;1991;48.682;9.030;2023-02-23T17:53:40;10.60;99.90
3954;DHT22;1991;48.682;9.030;2023-02-23T17:56:07;10.60;99.90
3954;DHT22;1991;48.682;9.030;2023-02-23T17:58:33;10.50;99.90
3954;DHT22;1991;48.682;9.030;2023-02-23T18:01:04;10.50;99.90
3954;DHT22;1991;48.682;9.030;2023-02-23T18:03:31;10.40;99.90
3954;DHT22;1991;48.682;9.030;2023-02-23T18:06:07;10.40;99.90
3954;DHT22;1991;48.682;9.030;2023-02-23T18:08:34;10.40;99.90
3954;DHT22;1991;48.682;9.030;2023-02-23T18:11:00;10.40;99.90
3954;DHT22;1991;48.682;9.030;2023-02-23T18:13:28;10.30;99.90
3954;DHT22;1991;48.682;9.030;2023-02-23T18:15:58;10.20;99.90
3954;DHT22;1991;48.682;9.030;2023-02-23T18:18:24;10.20;99.90
3954;DHT22;1991;48.682;9.030;2023-02-23T18:20:51;10.10;99.90
3954;DHT22;1991;48.682;9.030;2023-02-23T18:23:18;10.00;99.90
3954;DHT22;1991;48.682;9.030;2023-02-23T18:25:44;10.00;99.90
3954;DHT22;1991;48.682;9.030;2023-02-23T18:28:11;9.90;99.90
3954;DHT22;1991;48.682;9.030;2023-02-23T18:30:38;9.90;99.90
3954;DHT22;1991;48.682;9.030;2023-02-23T18:33:04;9.90;99.90
3954;DHT22;1991;48.682;9.030;2023-02-23T18:35:35;9.80;99.90
3954;DHT22;1991;48.682;9.030;2023-02-23T18:38:07;9.80;99.90